Terminal Aerodrome Forecast
Issued by NWS

Current Version | Previous Version | Text Only | Print | Product List | Glossary On
Versions: 1 2 3 4 5 6 7 8 9 10 11 12
807
FTUS46 KSGX 312328
TAFTRM
TAF
KTRM 312328Z 0100/0124 VRB06KT P6SM SCT100
     FM011700 14010G18KT P6SM FEW100
     FM012300 VRB06KT P6SM SCT100=

USA.gov is the U.S. government's official web portal to all federal, state and local government web resources and services.